Time;durP1;ratioP1;P1;durP2;ratioP2;P2;SDS_P1;SDS_P2;PMS_P1;PMS_P2;Temp;Humidity;BMP_temperature;BMP_pressure;BME280_temperature;BME280_humidity;BME280_pressure;Samples;Min_cycle;Max_cycle;Signal;HPM_P1;HPM_P2
2022/09/30 00:00:57;;;;;;;;;;;;;;;4.80;100.00;97332.91;5109452;27;20371;-41
2022/09/30 00:03:25;;;;;;;;;;;;;;;4.88;100.00;97333.34;5118799;27;20022;-40
2022/09/30 00:05:56;;;;;;;;;;;;;;;4.76;100.00;97339.19;5110883;27;20371;-38
2022/09/30 00:08:25;;;;;;;;;;;;;;;4.68;100.00;97336.16;5128896;27;19929;-43
2022/09/30 00:10:58;;;;;;;;;;;;;;;4.78;100.00;97332.13;5127264;27;19976;-39
2022/09/30 00:13:26;;;;;;;;;;;;;;;4.79;100.00;97339.03;5129389;27;19924;-38
2022/09/30 00:15:53;;;;;;;;;;;;;;;4.80;100.00;97338.09;5111205;27;20275;-38
2022/09/30 00:18:20;;;;;;;;;;;;;;;4.73;100.00;97336.75;5128521;27;20442;-46
2022/09/30 00:20:47;;;;;;;;;;;;;;;4.72;100.00;97343.69;5130680;27;19975;-38
2022/09/30 00:23:14;;;;;;;;;;;;;;;4.58;100.00;97335.78;5130282;27;19927;-38
2022/09/30 00:25:42;;;;;;;;;;;;;;;4.74;100.00;97338.41;5128576;27;19923;-44
2022/09/30 00:28:09;;;;;;;;;;;;;;;4.65;100.00;97342.38;5129842;27;19935;-38
2022/09/30 00:30:37;;;;;;;;;;;;;;;4.73;100.00;97357.59;5130567;27;20374;-38
2022/09/30 00:33:04;;;;;;;;;;;;;;;4.69;100.00;97350.84;5130029;27;19947;-38
2022/09/30 00:35:31;;;;;;;;;;;;;;;4.87;100.00;97347.28;5128979;28;19923;-38
2022/09/30 00:37:59;;;;;;;;;;;;;;;4.86;100.00;97353.44;5130367;28;20034;-38
2022/09/30 00:40:26;;;;;;;;;;;;;;;4.81;100.00;97345.00;5130390;28;19955;-38
2022/09/30 00:42:55;;;;;;;;;;;;;;;4.73;100.00;97341.94;5128794;28;19923;-38
2022/09/30 00:45:23;;;;;;;;;;;;;;;4.61;100.00;97342.59;5130302;28;19924;-40
2022/09/30 00:47:53;;;;;;;;;;;;;;;4.80;100.00;97356.34;5130200;28;19923;-38
2022/09/30 00:50:25;;;;;;;;;;;;;;;4.90;100.00;97352.34;5128461;28;19928;-39
2022/09/30 00:52:55;;;;;;;;;;;;;;;4.80;100.00;97351.13;5126323;28;19924;-38
2022/09/30 00:55:32;;;;;;;;;;;;;;;4.68;100.00;97347.38;5118181;28;19923;-39
2022/09/30 00:58:01;;;;;;;;;;;;;;;4.74;100.00;97348.84;5106141;28;19923;-38
2022/09/30 01:00:28;;;;;;;;;;;;;;;4.77;100.00;97350.47;5115248;28;19968;-38
2022/09/30 01:02:56;;;;;;;;;;;;;;;4.69;100.00;97354.31;5109631;28;19928;-39
2022/09/30 01:05:25;;;;;;;;;;;;;;;4.72;100.00;97354.13;5125649;28;20290;-39
2022/09/30 01:07:53;;;;;;;;;;;;;;;4.70;100.00;97355.13;5130196;28;20378;-41
2022/09/30 01:10:20;;;;;;;;;;;;;;;4.81;100.00;97360.63;5130234;28;19974;-40
2022/09/30 01:12:47;;;;;;;;;;;;;;;4.79;100.00;97367.69;5128371;28;19929;-39
2022/09/30 01:15:16;;;;;;;;;;;;;;;4.78;100.00;97366.00;5132785;27;19934;-38
2022/09/30 01:17:48;;;;;;;;;;;;;;;4.82;100.00;97370.97;5134220;27;19923;-42
2022/09/30 01:20:42;;;;;;;;;;;;;;;4.85;100.00;97375.19;5132330;27;19984;-46
2022/09/30 01:23:20;;;;;;;;;;;;;;;4.77;100.00;97375.59;5050532;28;19924;-39
2022/09/30 01:26:02;;;;;;;;;;;;;;;4.67;100.00;97369.16;5049074;28;20387;-38
2022/09/30 01:28:46;;;;;;;;;;;;;;;4.79;100.00;97365.09;5048486;28;20411;-38
2022/09/30 01:31:26;;;;;;;;;;;;;;;4.57;100.00;97374.94;5049930;28;20612;-39
2022/09/30 01:33:56;;;;;;;;;;;;;;;4.53;100.00;97382.03;5050194;28;20379;-38
2022/09/30 01:36:28;;;;;;;;;;;;;;;4.75;100.00;97374.81;5048300;28;19925;-41
2022/09/30 01:39:01;;;;;;;;;;;;;;;4.66;100.00;97384.88;5050443;28;19925;-38
2022/09/30 01:41:36;;;;;;;;;;;;;;;4.54;100.00;97378.53;5050454;28;19933;-39
2022/09/30 01:44:08;;;;;;;;;;;;;;;4.53;100.00;97376.00;5050333;28;20191;-38
2022/09/30 01:46:42;;;;;;;;;;;;;;;4.52;100.00;97384.72;5049530;28;19928;-39
2022/09/30 01:49:12;;;;;;;;;;;;;;;4.61;100.00;97379.06;5047674;28;20024;-38
2022/09/30 01:51:41;;;;;;;;;;;;;;;4.61;100.00;97376.47;5050147;28;19925;-38
2022/09/30 01:54:13;;;;;;;;;;;;;;;4.46;100.00;97366.81;5049926;28;19956;-39
2022/09/30 01:56:42;;;;;;;;;;;;;;;4.51;100.00;97370.03;5047702;28;20006;-39
2022/09/30 01:59:13;;;;;;;;;;;;;;;4.59;100.00;97365.25;5099355;27;20378;-38
2022/09/30 02:01:46;;;;;;;;;;;;;;;4.74;100.00;97361.88;5133032;27;19923;-38
2022/09/30 02:04:18;;;;;;;;;;;;;;;4.79;100.00;97354.66;5123125;27;19930;-38
2022/09/30 02:06:49;;;;;;;;;;;;;;;4.66;100.00;97364.03;5128327;27;19923;-38
2022/09/30 02:09:21;;;;;;;;;;;;;;;4.69;100.00;97379.50;5133063;27;19934;-38
2022/09/30 02:11:48;;;;;;;;;;;;;;;4.96;100.00;97372.84;5132425;27;19923;-39
2022/09/30 02:14:18;;;;;;;;;;;;;;;4.79;100.00;97376.34;5132941;27;19923;-39
2022/09/30 02:16:49;;;;;;;;;;;;;;;4.74;100.00;97372.28;5132785;27;20012;-38
2022/09/30 02:19:19;;;;;;;;;;;;;;;4.86;100.00;97381.25;5132293;27;19924;-38
2022/09/30 02:21:52;;;;;;;;;;;;;;;4.88;100.00;97388.06;5132585;27;19942;-40
2022/09/30 02:24:20;;;;;;;;;;;;;;;4.99;100.00;97390.94;5132111;27;19923;-41
2022/09/30 02:26:49;;;;;;;;;;;;;;;5.03;100.00;97389.88;5129454;27;19924;-38
2022/09/30 02:29:18;;;;;;;;;;;;;;;5.15;100.00;97397.03;5128016;27;20379;-38
2022/09/30 02:31:49;;;;;;;;;;;;;;;5.08;100.00;97402.66;5132193;27;19927;-54
2022/09/30 02:34:19;;;;;;;;;;;;;;;5.18;100.00;97402.09;5114159;27;20210;-39
2022/09/30 02:36:49;;;;;;;;;;;;;;;5.18;100.00;97390.84;5132442;27;20374;-38
2022/09/30 02:39:21;;;;;;;;;;;;;;;5.15;100.00;97398.81;5131887;27;19931;-55
2022/09/30 02:41:50;;;;;;;;;;;;;;;5.29;100.00;97391.94;5132037;27;19947;-38
2022/09/30 02:44:18;;;;;;;;;;;;;;;5.32;100.00;97391.78;5132166;27;20043;-39
2022/09/30 02:46:53;;;;;;;;;;;;;;;5.27;100.00;97390.34;5131757;27;19930;-56
2022/09/30 02:49:25;;;;;;;;;;;;;;;5.19;100.00;97401.19;5131933;27;20336;-38
2022/09/30 02:52:03;;;;;;;;;;;;;;;5.30;100.00;97395.41;5131909;27;20275;-38
2022/09/30 02:54:32;;;;;;;;;;;;;;;5.31;100.00;97407.50;5130631;27;19968;-39
2022/09/30 02:57:01;;;;;;;;;;;;;;;5.29;100.00;97401.53;5131901;27;19923;-41
2022/09/30 02:59:29;;;;;;;;;;;;;;;5.30;100.00;97388.44;5131823;27;19976;-38
2022/09/30 03:01:58;;;;;;;;;;;;;;;5.21;100.00;97404.53;5122690;27;19934;-43
2022/09/30 03:04:26;;;;;;;;;;;;;;;5.24;100.00;97401.78;5127758;27;19975;-39
2022/09/30 03:06:54;;;;;;;;;;;;;;;5.29;100.00;97397.16;5121860;27;19931;-38
2022/09/30 03:09:24;;;;;;;;;;;;;;;5.38;100.00;97401.03;5120768;27;19974;-49
2022/09/30 03:11:55;;;;;;;;;;;;;;;5.43;100.00;97383.38;5122721;27;20390;-39
2022/09/30 03:14:31;;;;;;;;;;;;;;;5.30;100.00;97388.44;5114274;27;19947;-39
2022/09/30 03:17:10;;;;;;;;;;;;;;;5.28;100.00;97398.09;5094809;28;20022;-39
2022/09/30 03:19:46;;;;;;;;;;;;;;;5.33;100.00;97398.66;5092126;28;19927;-39
2022/09/30 03:22:24;;;;;;;;;;;;;;;5.37;100.00;97405.41;5091147;28;20325;-46
2022/09/30 03:25:00;;;;;;;;;;;;;;;5.41;100.00;97396.53;5116080;27;20412;-39
2022/09/30 03:27:31;;;;;;;;;;;;;;;5.37;100.00;97401.97;5116625;27;20034;-53
2022/09/30 03:30:01;;;;;;;;;;;;;;;5.41;100.00;97398.28;5127328;27;19970;-39
2022/09/30 03:32:43;;;;;;;;;;;;;;;5.46;100.00;97407.53;5122229;27;19939;-45
2022/09/30 03:35:17;;;;;;;;;;;;;;;5.51;100.00;97399.47;5117363;27;19951;-39
2022/09/30 03:37:49;;;;;;;;;;;;;;;5.51;100.00;97397.69;5109466;27;19982;-38
2022/09/30 03:40:23;;;;;;;;;;;;;;;5.53;100.00;97395.84;5111126;27;19930;-55
2022/09/30 03:42:53;;;;;;;;;;;;;;;5.40;100.00;97405.25;5109893;27;19958;-38
2022/09/30 03:45:26;;;;;;;;;;;;;;;5.42;100.00;97398.19;5109312;27;19924;-41
2022/09/30 03:47:57;;;;;;;;;;;;;;;5.46;100.00;97399.72;5109372;27;19969;-40
2022/09/30 03:50:26;;;;;;;;;;;;;;;5.54;100.00;97407.97;5113555;27;19927;-39
2022/09/30 03:52:53;;;;;;;;;;;;;;;5.53;100.00;97406.28;5112337;27;20259;-44
2022/09/30 03:55:22;;;;;;;;;;;;;;;5.50;100.00;97414.28;5119392;27;20291;-39
2022/09/30 03:57:50;;;;;;;;;;;;;;;5.50;100.00;97413.41;5112363;27;19954;-49
2022/09/30 04:00:17;;;;;;;;;;;;;;;5.44;100.00;97411.97;5110036;28;19924;-38
2022/09/30 04:02:45;;;;;;;;;;;;;;;5.45;100.00;97426.72;5121490;27;20414;-53
2022/09/30 04:05:13;;;;;;;;;;;;;;;5.52;100.00;97425.47;5121319;27;19924;-38
2022/09/30 04:07:40;;;;;;;;;;;;;;;5.54;100.00;97427.97;5101947;27;19931;-41
2022/09/30 04:10:08;;;;;;;;;;;;;;;5.51;100.00;97430.78;5111204;27;19924;-56
2022/09/30 04:12:35;;;;;;;;;;;;;;;5.60;100.00;97423.28;5108419;27;19931;-38
2022/09/30 04:15:02;;;;;;;;;;;;;;;5.49;100.00;97428.25;5109792;27;19937;-39
2022/09/30 04:17:29;;;;;;;;;;;;;;;5.61;100.00;97429.34;5109829;27;19924;-40
2022/09/30 04:19:57;;;;;;;;;;;;;;;5.59;100.00;97437.25;5118633;27;19927;-38
2022/09/30 04:22:25;;;;;;;;;;;;;;;5.66;100.00;97428.16;5110745;27;20014;-44
2022/09/30 04:24:52;;;;;;;;;;;;;;;5.56;100.00;97431.38;5109191;28;19924;-41
2022/09/30 04:27:19;;;;;;;;;;;;;;;5.47;100.00;97424.88;5114169;28;19927;-56
2022/09/30 04:29:46;;;;;;;;;;;;;;;5.60;100.00;97438.09;5115680;27;20541;-43
2022/09/30 04:32:14;;;;;;;;;;;;;;;5.62;100.00;97441.47;5109244;28;19924;-38
2022/09/30 04:34:41;;;;;;;;;;;;;;;5.57;100.00;97443.47;5109019;27;20286;-39
2022/09/30 04:37:08;;;;;;;;;;;;;;;5.63;100.00;97446.63;5107256;28;19977;-38
2022/09/30 04:39:36;;;;;;;;;;;;;;;5.62;100.00;97451.91;5119802;28;20355;-39
2022/09/30 04:42:04;;;;;;;;;;;;;;;5.57;100.00;97452.16;5109088;28;19978;-39
2022/09/30 04:44:31;;;;;;;;;;;;;;;5.63;100.00;97458.81;5107185;28;20288;-39
2022/09/30 04:46:59;;;;;;;;;;;;;;;5.61;100.00;97455.44;5109474;28;19934;-39
2022/09/30 04:49:26;;;;;;;;;;;;;;;5.47;100.00;97445.72;5123408;27;19952;-38
2022/09/30 04:51:53;;;;;;;;;;;;;;;5.52;100.00;97450.72;5113569;27;19924;-44
2022/09/30 04:54:21;;;;;;;;;;;;;;;5.53;100.00;97452.38;5124620;27;19997;-41
2022/09/30 04:56:49;;;;;;;;;;;;;;;5.51;100.00;97452.47;5113512;27;19924;-38
2022/09/30 04:59:17;;;;;;;;;;;;;;;5.57;100.00;97448.69;5112788;27;19946;-38
2022/09/30 05:01:44;;;;;;;;;;;;;;;5.62;100.00;97451.91;5114112;27;19977;-39
2022/09/30 05:04:12;;;;;;;;;;;;;;;5.70;100.00;97457.56;5122605;27;20405;-39
2022/09/30 05:06:39;;;;;;;;;;;;;;;5.66;100.00;97453.44;5114301;27;20022;-38
2022/09/30 05:09:07;;;;;;;;;;;;;;;5.65;100.00;97449.97;5110790;27;19970;-38
2022/09/30 05:11:36;;;;;;;;;;;;;;;5.60;100.00;97445.94;5113022;28;19931;-38
2022/09/30 05:14:08;;;;;;;;;;;;;;;5.67;100.00;97448.13;5119445;27;20018;-39
2022/09/30 05:16:36;;;;;;;;;;;;;;;5.75;100.00;97445.94;5130602;27;19972;-39
2022/09/30 05:19:03;;;;;;;;;;;;;;;5.76;100.00;97436.34;5129776;27;20346;-43
2022/09/30 05:21:30;;;;;;;;;;;;;;;5.71;100.00;97441.81;5126531;27;19976;-38
2022/09/30 05:23:58;;;;;;;;;;;;;;;5.64;100.00;97445.69;5117866;27;19924;-50
2022/09/30 05:26:25;;;;;;;;;;;;;;;5.75;100.00;97445.09;5112334;27;19967;-39
2022/09/30 05:28:52;;;;;;;;;;;;;;;5.79;100.00;97447.47;5117064;27;20397;-38
2022/09/30 05:31:21;;;;;;;;;;;;;;;5.80;100.00;97453.50;5112553;28;19928;-38
2022/09/30 05:33:48;;;;;;;;;;;;;;;5.68;100.00;97456.78;5110572;28;19946;-38
2022/09/30 05:36:15;;;;;;;;;;;;;;;5.84;100.00;97455.88;5118006;27;19930;-43
2022/09/30 05:38:42;;;;;;;;;;;;;;;5.88;100.00;97457.38;5131111;27;19923;-38
2022/09/30 05:41:11;;;;;;;;;;;;;;;5.87;100.00;97460.94;5130819;27;19952;-39
2022/09/30 05:43:38;;;;;;;;;;;;;;;5.87;100.00;97463.53;5133407;27;20472;-40
2022/09/30 05:46:06;;;;;;;;;;;;;;;5.98;100.00;97481.25;5132699;27;19923;-38
2022/09/30 05:48:34;;;;;;;;;;;;;;;6.06;100.00;97473.88;5132334;27;19972;-50
2022/09/30 05:51:01;;;;;;;;;;;;;;;6.02;100.00;97467.97;5133537;27;19928;-39
2022/09/30 05:53:29;;;;;;;;;;;;;;;6.04;100.00;97463.50;5133144;27;19953;-47
2022/09/30 05:55:56;;;;;;;;;;;;;;;6.09;100.00;97469.31;5133207;27;20382;-38
2022/09/30 05:58:23;;;;;;;;;;;;;;;5.97;100.00;97477.81;5130909;27;19927;-43
2022/09/30 06:00:50;;;;;;;;;;;;;;;6.03;100.00;97468.81;5132656;27;19955;-38
2022/09/30 06:03:18;;;;;;;;;;;;;;;6.11;100.00;97475.31;5132941;27;19923;-38
2022/09/30 06:05:46;;;;;;;;;;;;;;;6.13;100.00;97472.56;5129147;27;19931;-39
2022/09/30 06:08:14;;;;;;;;;;;;;;;6.20;100.00;97472.16;5133097;27;19923;-39
2022/09/30 06:10:42;;;;;;;;;;;;;;;6.16;100.00;97475.03;5132719;27;19924;-39
2022/09/30 06:13:09;;;;;;;;;;;;;;;6.32;100.00;97481.91;5124683;27;19946;-40
2022/09/30 06:15:36;;;;;;;;;;;;;;;6.35;100.00;97473.06;5130080;27;20128;-38
2022/09/30 06:18:04;;;;;;;;;;;;;;;6.22;100.00;97472.94;5126629;27;19931;-38
2022/09/30 06:20:31;;;;;;;;;;;;;;;6.23;100.00;97482.44;5132587;27;19924;-39
2022/09/30 06:23:00;;;;;;;;;;;;;;;6.21;100.00;97481.69;5130903;27;19931;-42
2022/09/30 06:25:28;;;;;;;;;;;;;;;6.42;100.00;97484.84;5132851;27;19923;-38
2022/09/30 06:27:55;;;;;;;;;;;;;;;6.33;100.00;97488.00;5132694;27;19927;-38
2022/09/30 06:30:22;;;;;;;;;;;;;;;6.40;100.00;97494.56;5130653;27;20435;-38
2022/09/30 06:32:50;;;;;;;;;;;;;;;6.32;100.00;97499.38;5131960;27;19923;-38
2022/09/30 06:35:18;;;;;;;;;;;;;;;6.27;100.00;97497.03;5132542;27;19984;-41
2022/09/30 06:37:45;;;;;;;;;;;;;;;6.16;100.00;97494.16;5130491;27;20438;-54
2022/09/30 06:40:14;;;;;;;;;;;;;;;6.00;100.00;97497.69;5132721;27;19923;-38
2022/09/30 06:42:41;;;;;;;;;;;;;;;6.12;100.00;97500.47;5125078;27;19927;-39
2022/09/30 06:45:10;;;;;;;;;;;;;;;6.15;100.00;97497.72;5113876;27;19923;-38
2022/09/30 06:47:37;;;;;;;;;;;;;;;6.17;100.00;97497.63;5130560;27;19923;-39
2022/09/30 06:50:04;;;;;;;;;;;;;;;6.10;100.00;97504.09;5132441;27;19927;-38
2022/09/30 06:52:32;;;;;;;;;;;;;;;6.04;100.00;97510.50;5132059;27;19923;-38
2022/09/30 06:54:59;;;;;;;;;;;;;;;6.12;100.00;97515.28;5129925;27;20025;-38
2022/09/30 06:57:28;;;;;;;;;;;;;;;6.14;100.00;97510.84;5132099;27;20289;-38
2022/09/30 06:59:55;;;;;;;;;;;;;;;6.17;100.00;97506.28;5132137;27;19934;-38
2022/09/30 07:02:23;;;;;;;;;;;;;;;6.14;100.00;97511.66;5129600;27;19924;-41
2022/09/30 07:04:50;;;;;;;;;;;;;;;6.20;100.00;97513.09;5131523;27;19923;-39
2022/09/30 07:07:17;;;;;;;;;;;;;;;6.31;100.00;97511.59;5106422;27;19924;-39
2022/09/30 07:09:44;;;;;;;;;;;;;;;6.41;100.00;97517.16;5131147;27;19927;-38
2022/09/30 07:12:12;;;;;;;;;;;;;;;6.44;100.00;97515.22;5128736;27;19944;-38
2022/09/30 07:14:40;;;;;;;;;;;;;;;6.38;100.00;97519.94;5125929;27;19934;-39
2022/09/30 07:17:07;;;;;;;;;;;;;;;6.45;100.00;97513.44;5131077;27;19924;-38
2022/09/30 07:19:35;;;;;;;;;;;;;;;6.63;100.00;97513.25;5127972;27;19927;-40
2022/09/30 07:24:43;;;;;;;;;;;;;;;6.59;100.00;97516.13;5128728;27;19923;-55
2022/09/30 07:27:12;;;;;;;;;;;;;;;6.68;100.00;97516.44;5129725;27;19959;-41
2022/09/30 07:29:41;;;;;;;;;;;;;;;6.72;100.00;97519.72;5130525;27;20003;-38
2022/09/30 07:32:09;;;;;;;;;;;;;;;6.69;100.00;97519.91;5128124;27;20441;-38
2022/09/30 07:34:36;;;;;;;;;;;;;;;6.62;100.00;97516.78;5128902;27;20290;-38
2022/09/30 07:37:03;;;;;;;;;;;;;;;6.69;100.00;97515.50;5127609;27;19970;-38
2022/09/30 07:39:31;;;;;;;;;;;;;;;6.67;100.00;97513.91;5116161;27;19931;-41
2022/09/30 07:42:00;;;;;;;;;;;;;;;6.68;100.00;97521.66;5128862;27;19927;-38
2022/09/30 07:44:28;;;;;;;;;;;;;;;6.73;100.00;97518.81;5129502;27;19932;-38
2022/09/30 07:46:57;;;;;;;;;;;;;;;6.73;100.00;97524.84;5129272;27;19972;-39
2022/09/30 07:49:24;;;;;;;;;;;;;;;6.86;100.00;97525.00;5127653;27;20271;-40
2022/09/30 07:51:52;;;;;;;;;;;;;;;6.99;100.00;97521.59;5127700;27;20326;-38
2022/09/30 07:54:21;;;;;;;;;;;;;;;6.89;100.00;97530.06;5130916;27;19923;-39
2022/09/30 07:56:49;;;;;;;;;;;;;;;7.10;100.00;97528.81;5129884;27;19923;-44
2022/09/30 07:59:16;;;;;;;;;;;;;;;7.12;100.00;97527.78;5129346;27;20365;-40
2022/09/30 08:01:43;;;;;;;;;;;;;;;7.16;100.00;97531.91;5130274;27;19959;-38
2022/09/30 08:04:13;;;;;;;;;;;;;;;7.23;100.00;97533.25;5130143;27;19992;-39
2022/09/30 08:06:41;;;;;;;;;;;;;;;7.03;100.00;97533.56;5107533;27;19931;-38
2022/09/30 08:09:08;;;;;;;;;;;;;;;7.21;100.00;97536.88;5129636;27;19923;-39
2022/09/30 08:11:36;;;;;;;;;;;;;;;7.33;100.00;97536.16;5121614;27;19954;-39
2022/09/30 08:14:04;;;;;;;;;;;;;;;7.38;100.00;97537.56;5107014;27;20374;-38
2022/09/30 08:16:31;;;;;;;;;;;;;;;7.52;100.00;97537.59;5129153;27;19923;-41
2022/09/30 08:18:59;;;;;;;;;;;;;;;7.56;100.00;97533.88;5128890;27;20363;-40
2022/09/30 08:21:28;;;;;;;;;;;;;;;7.54;100.00;97540.94;5129465;27;19923;-52
2022/09/30 08:23:55;;;;;;;;;;;;;;;7.47;100.00;97542.25;5125861;27;20332;-48
2022/09/30 08:26:23;;;;;;;;;;;;;;;7.45;100.00;97549.38;5110530;27;20355;-38
2022/09/30 08:28:51;;;;;;;;;;;;;;;7.46;100.00;97543.19;5128847;27;20019;-38
2022/09/30 08:31:19;;;;;;;;;;;;;;;7.55;100.00;97550.50;5127783;27;20382;-38
2022/09/30 08:33:48;;;;;;;;;;;;;;;7.54;100.00;97551.41;5129641;28;20213;-39
2022/09/30 08:36:16;;;;;;;;;;;;;;;7.58;100.00;97552.09;5112235;28;19984;-39
2022/09/30 08:38:45;;;;;;;;;;;;;;;7.71;100.00;97547.78;5128567;28;19919;-38
2022/09/30 08:41:19;;;;;;;;;;;;;;;7.58;100.00;97552.09;5130491;28;19919;-38
2022/09/30 08:43:53;;;;;;;;;;;;;;;7.58;100.00;97552.91;5130527;28;19923;-38
2022/09/30 08:46:28;;;;;;;;;;;;;;;7.70;100.00;97552.22;5129393;28;19919;-49
2022/09/30 08:49:01;;;;;;;;;;;;;;;7.65;100.00;97558.66;5110043;28;19920;-39
2022/09/30 08:51:31;;;;;;;;;;;;;;;7.64;100.00;97557.78;5109585;28;19927;-39
2022/09/30 08:54:02;;;;;;;;;;;;;;;7.66;100.00;97555.94;5130150;28;19976;-39
2022/09/30 08:56:30;;;;;;;;;;;;;;;7.78;100.00;97552.63;5129448;28;19919;-39
2022/09/30 08:59:01;;;;;;;;;;;;;;;7.77;100.00;97558.78;5128067;28;19951;-39
2022/09/30 09:01:31;;;;;;;;;;;;;;;7.76;100.00;97557.09;5111619;28;19923;-38
2022/09/30 09:03:58;;;;;;;;;;;;;;;7.73;100.00;97565.13;5129819;28;19976;-39
2022/09/30 09:06:29;;;;;;;;;;;;;;;7.76;100.00;97562.31;5128055;28;19923;-41
2022/09/30 09:09:03;;;;;;;;;;;;;;;7.72;100.00;97568.66;5129934;28;19919;-39
2022/09/30 09:11:41;;;;;;;;;;;;;;;7.77;100.00;97561.41;5126832;28;19947;-38
2022/09/30 09:14:17;;;;;;;;;;;;;;;8.02;100.00;97560.75;5129653;28;20311;-38
2022/09/30 09:16:49;;;;;;;;;;;;;;;8.06;100.00;97559.63;5129871;28;19920;-38
2022/09/30 09:19:17;;;;;;;;;;;;;;;7.98;100.00;97565.31;5126087;28;19923;-38
2022/09/30 09:21:50;;;;;;;;;;;;;;;8.15;100.00;97558.22;5129730;28;19919;-38
2022/09/30 09:24:21;;;;;;;;;;;;;;;7.90;100.00;97561.50;5129852;28;19932;-38
2022/09/30 09:26:48;;;;;;;;;;;;;;;7.90;100.00;97564.94;5126215;28;19919;-38
2022/09/30 09:29:35;;;;;;;;;;;;;;;8.12;100.00;97558.41;5129106;28;19930;-38
2022/09/30 09:32:03;;;;;;;;;;;;;;;7.94;100.00;97561.22;5104977;28;20332;-40
2022/09/30 09:34:30;;;;;;;;;;;;;;;7.97;100.00;97568.88;5129608;27;19964;-39
2022/09/30 09:37:03;;;;;;;;;;;;;;;8.22;100.00;97559.53;5133461;27;20613;-41
2022/09/30 09:39:45;;;;;;;;;;;;;;;8.16;100.00;97560.75;5130154;27;19919;-39
2022/09/30 09:42:27;;;;;;;;;;;;;;;8.01;100.00;97567.75;5127256;27;20282;-38
2022/09/30 09:44:59;;;;;;;;;;;;;;;8.16;100.00;97559.91;5130081;27;20031;-44
2022/09/30 09:47:26;;;;;;;;;;;;;;;8.24;100.00;97558.50;5130939;27;19972;-38
2022/09/30 09:49:56;;;;;;;;;;;;;;;8.17;100.00;97561.56;5133208;27;20285;-38
2022/09/30 09:52:37;;;;;;;;;;;;;;;7.95;100.00;97565.53;5131320;27;19919;-41
2022/09/30 09:55:04;;;;;;;;;;;;;;;7.95;100.00;97565.53;5133191;27;19919;-39
2022/09/30 09:57:33;;;;;;;;;;;;;;;7.99;100.00;97568.78;5133266;27;19920;-39
2022/09/30 10:01:07;;;;;;;;;;;;;;;7.90;100.00;97562.34;5130914;27;19919;-39
2022/09/30 10:02:58;;;;;;;;;;;;;;;7.96;100.00;97569.84;5124302;27;19919;-39
2022/09/30 10:05:26;;;;;;;;;;;;;;;8.00;100.00;97560.00;5130233;27;19919;-39
2022/09/30 10:08:08;;;;;;;;;;;;;;;7.94;100.00;97565.63;5132613;27;20378;-40
2022/09/30 10:10:42;;;;;;;;;;;;;;;7.92;100.00;97560.47;5112233;27;19931;-38
2022/09/30 10:13:15;;;;;;;;;;;;;;;8.06;100.00;97560.44;5112721;28;20015;-38
2022/09/30 10:15:43;;;;;;;;;;;;;;;7.95;100.00;97565.53;5112528;28;19920;-38
2022/09/30 10:18:17;;;;;;;;;;;;;;;7.84;100.00;97570.59;5126096;27;20401;-39
2022/09/30 10:20:50;;;;;;;;;;;;;;;7.76;100.00;97575.41;5132887;27;19935;-38
2022/09/30 10:23:19;;;;;;;;;;;;;;;7.93;100.00;97564.78;5114079;27;20289;-48
2022/09/30 10:25:56;;;;;;;;;;;;;;;7.92;100.00;97568.34;5131695;27;20568;-40
2022/09/30 10:28:25;;;;;;;;;;;;;;;7.92;100.00;97570.09;5132590;27;19926;-42
2022/09/30 10:30:55;;;;;;;;;;;;;;;7.95;100.00;97573.41;5130975;27;19926;-39
2022/09/30 10:33:25;;;;;;;;;;;;;;;8.01;100.00;97577.38;5131765;27;19963;-38
2022/09/30 10:35:57;;;;;;;;;;;;;;;7.89;100.00;97575.53;5131815;27;19988;-38
2022/09/30 10:38:28;;;;;;;;;;;;;;;8.01;100.00;97578.25;5129819;27;19981;-39
2022/09/30 10:40:55;;;;;;;;;;;;;;;7.94;100.00;97581.34;5131999;27;19942;-38
2022/09/30 10:43:27;;;;;;;;;;;;;;;7.86;100.00;97589.66;5132355;27;19973;-38
2022/09/30 10:45:54;;;;;;;;;;;;;;;7.81;100.00;97591.72;5130057;27;19923;-38
2022/09/30 10:48:24;;;;;;;;;;;;;;;7.90;100.00;97585.09;5132338;27;20009;-42
2022/09/30 10:50:52;;;;;;;;;;;;;;;7.82;100.00;97588.16;5131485;27;19972;-38
2022/09/30 10:53:23;;;;;;;;;;;;;;;7.80;100.00;97590.00;5130133;27;19976;-48
2022/09/30 10:55:50;;;;;;;;;;;;;;;7.84;100.00;97591.53;5132096;27;19919;-38
2022/09/30 10:58:23;;;;;;;;;;;;;;;7.92;100.00;97589.28;5131797;27;20014;-38
2022/09/30 11:00:56;;;;;;;;;;;;;;;7.74;100.00;97598.22;5105482;28;19923;-38
2022/09/30 11:03:26;;;;;;;;;;;;;;;7.74;100.00;97599.97;5128273;27;19927;-38
2022/09/30 11:05:53;;;;;;;;;;;;;;;7.80;100.00;97595.25;5128996;27;19926;-39
2022/09/30 11:08:25;;;;;;;;;;;;;;;7.78;100.00;97599.75;5129944;27;20372;-38
2022/09/30 11:10:56;;;;;;;;;;;;;;;7.78;100.00;97610.22;5128658;27;19923;-39
2022/09/30 11:13:27;;;;;;;;;;;;;;;7.66;100.00;97600.44;5131712;27;19919;-38
2022/09/30 11:16:05;;;;;;;;;;;;;;;7.58;100.00;97604.44;5127173;27;19931;-38
2022/09/30 11:18:36;;;;;;;;;;;;;;;7.66;100.00;97607.44;5131454;27;20014;-38
2022/09/30 11:21:06;;;;;;;;;;;;;;;7.63;100.00;97611.09;5130947;27;20340;-40
2022/09/30 11:23:36;;;;;;;;;;;;;;;7.71;100.00;97608.88;5131444;27;20209;-38
2022/09/30 11:26:08;;;;;;;;;;;;;;;7.62;100.00;97606.81;5131480;27;19920;-38
2022/09/30 11:28:47;;;;;;;;;;;;;;;7.67;100.00;97614.38;5129886;27;19965;-41
2022/09/30 11:31:22;;;;;;;;;;;;;;;7.62;100.00;97616.41;5128264;27;20328;-42
2022/09/30 11:34:01;;;;;;;;;;;;;;;7.56;100.00;97612.38;5131167;27;20022;-42
2022/09/30 11:36:34;;;;;;;;;;;;;;;7.68;100.00;97622.13;5131274;27;19926;-38
2022/09/30 11:39:08;;;;;;;;;;;;;;;7.71;100.00;97615.88;5131090;27;19919;-38
2022/09/30 11:41:36;;;;;;;;;;;;;;;7.77;100.00;97612.94;5126738;27;19919;-38
2022/09/30 11:44:11;;;;;;;;;;;;;;;7.72;100.00;97626.25;5129794;27;19966;-38
2022/09/30 11:46:49;;;;;;;;;;;;;;;7.88;100.00;97618.38;5129248;27;20322;-39
2022/09/30 11:49:37;;;;;;;;;;;;;;;7.85;100.00;97621.16;5108602;28;19924;-38
2022/09/30 11:52:09;;;;;;;;;;;;;;;7.87;100.00;97627.97;5119773;27;19919;-50
2022/09/30 11:54:47;;;;;;;;;;;;;;;7.86;100.00;97623.69;5131238;27;20362;-38
2022/09/30 11:57:19;;;;;;;;;;;;;;;7.92;100.00;97622.47;5131375;27;19927;-38
2022/09/30 11:59:48;;;;;;;;;;;;;;;7.85;100.00;97629.88;5128184;27;20273;-38
2022/09/30 12:02:26;;;;;;;;;;;;;;;7.83;100.00;97631.72;5125646;27;20290;-39
2022/09/30 12:04:56;;;;;;;;;;;;;;;7.88;100.00;97629.69;5127478;27;19927;-39
2022/09/30 12:07:31;;;;;;;;;;;;;;;7.80;100.00;97626.66;5130485;27;20128;-39
2022/09/30 12:10:01;;;;;;;;;;;;;;;7.92;100.00;97631.19;5127873;27;20385;-39
2022/09/30 12:12:28;;;;;;;;;;;;;;;7.79;100.00;97630.22;5125917;27;19927;-39
2022/09/30 12:14:57;;;;;;;;;;;;;;;7.81;100.00;97636.22;5130493;27;20255;-39
2022/09/30 12:17:31;;;;;;;;;;;;;;;7.78;100.00;97632.94;5130452;27;19919;-38
2022/09/30 12:20:02;;;;;;;;;;;;;;;7.91;100.00;97634.72;5125873;27;19927;-40
2022/09/30 12:22:32;;;;;;;;;;;;;;;7.86;100.00;97634.16;5130497;27;19925;-39
2022/09/30 12:25:00;;;;;;;;;;;;;;;7.86;100.00;97631.56;5127905;27;19919;-38
2022/09/30 12:27:32;;;;;;;;;;;;;;;7.88;100.00;97629.69;5128662;27;19966;-39
2022/09/30 12:30:16;;;;;;;;;;;;;;;7.76;100.00;97640.88;5129990;27;20016;-38
2022/09/30 12:33:01;;;;;;;;;;;;;;;7.77;100.00;97633.88;5127198;27;19934;-55
2022/09/30 12:35:59;;;;;;;;;;;;;;;7.81;100.00;97638.00;5116505;27;19939;-38
2022/09/30 12:38:34;;;;;;;;;;;;;;;7.73;100.00;97641.06;5046471;28;20027;-38
2022/09/30 12:41:06;;;;;;;;;;;;;;;7.82;100.00;97645.75;5046838;28;19921;-39
2022/09/30 12:44:03;;;;;;;;;;;;;;;7.87;100.00;97646.31;5043233;28;20425;-43
2022/09/30 12:46:45;;;;;;;;;;;;;;;7.76;100.00;97642.66;4987128;28;19922;-38
2022/09/30 12:49:18;;;;;;;;;;;;;;;7.70;100.00;97643.84;4985370;28;19922;-39
2022/09/30 12:51:49;;;;;;;;;;;;;;;7.69;100.00;97647.38;4987871;28;19928;-38
2022/09/30 12:54:18;;;;;;;;;;;;;;;7.72;100.00;97649.81;4985850;28;19945;-38
2022/09/30 12:56:48;;;;;;;;;;;;;;;7.64;100.00;97651.19;4987543;28;20373;-38
2022/09/30 12:59:19;;;;;;;;;;;;;;;7.73;100.00;97651.53;4970942;28;19969;-38
2022/09/30 13:01:46;;;;;;;;;;;;;;;7.59;100.00;97659.34;4975566;28;20017;-39
2022/09/30 13:04:18;;;;;;;;;;;;;;;7.60;100.00;97660.16;4987660;28;19928;-38
2022/09/30 13:07:12;;;;;;;;;;;;;;;7.62;100.00;97666.16;4984349;28;19929;-40